»·PEaware :: SAS4920 KNYL-KLAX

SAS4920 :: KNYL-KLAX

FLIGHT INFORMATION

Flight Status: Arrived
Operator:
SAS
More flights by this operator :: More flights under this callsign
Pilot: Vegard H. (1620)
Aircraft: AIRBUS A320
(A320)
More flights by this aircraft type
Origin: KNYL Yuma MCAS/Yuma Intl
United States
Destination: KLAX Los Angeles Intl
United States
More flights between these airports :: More routes between these airports
Route: +CARGO8 IPL GWIRE JLI OLDEE1
File this flight plan on PilotEdge
Remarks:
Altitude:
(Current/Filed)
20,000ft
Speed:
(Current/Filed)
420kts
Departed: 09-Sep-14 02:45 PM
Arrived: 09-Sep-14 03:31 PM
Distance/Time
Traveled:
205nm/0:45
Distance/Time
To Go:
Arrived

Flight Plot

Page will automatically refresh every two minutes.


Map Options




Map Legend


Flown Route
Filed Route
Departure Airport
Arrival Airport
Navaid (VOR, NDB)
Fix

Horizontal Profiles

Position Reports

Time Latitude Longitude Heading Altitude Ground
Speed
09-Sep-14 14:06 32.667658 -114.599580 179 215ft 0kts
09-Sep-14 14:07 32.667658 -114.599580 179 215ft 0kts
09-Sep-14 14:08 32.667658 -114.599580 179 215ft 0kts
09-Sep-14 14:09 32.667658 -114.599580 179 215ft 0kts
09-Sep-14 14:10 32.667658 -114.599580 179 215ft 0kts
09-Sep-14 14:11 32.667658 -114.599580 179 215ft 0kts
09-Sep-14 14:12 32.667658 -114.599580 179 215ft 0kts
09-Sep-14 14:13 32.667658 -114.599580 179 215ft 0kts
09-Sep-14 14:14 32.667658 -114.599580 179 215ft 0kts
09-Sep-14 14:15 32.667658 -114.599580 179 215ft 0kts
09-Sep-14 14:16 32.667658 -114.599580 179 215ft 0kts
09-Sep-14 14:17 32.667658 -114.599580 179 215ft 0kts
09-Sep-14 14:18 32.667658 -114.599580 179 215ft 0kts
09-Sep-14 14:19 32.667658 -114.599580 179 215ft 0kts
09-Sep-14 14:20 32.667658 -114.599580 179 215ft 0kts
09-Sep-14 14:21 32.667658 -114.599580 179 215ft 0kts
09-Sep-14 14:22 32.667658 -114.599580 179 215ft 0kts
09-Sep-14 14:23 32.667658 -114.599580 179 215ft 0kts
09-Sep-14 14:24 32.667658 -114.599580 179 215ft 0kts
09-Sep-14 14:25 32.667658 -114.599580 179 215ft 0kts
09-Sep-14 14:26 32.667658 -114.599580 179 215ft 0kts
09-Sep-14 14:27 32.667658 -114.599580 179 215ft 0kts
09-Sep-14 14:28 32.667658 -114.599580 179 215ft 0kts
09-Sep-14 14:29 32.667658 -114.599580 179 215ft 0kts
09-Sep-14 14:30 32.667658 -114.599580 179 215ft 0kts
09-Sep-14 14:31 32.667658 -114.599580 179 214ft 0kts
09-Sep-14 14:32 32.667658 -114.599580 179 214ft 0kts
09-Sep-14 14:33 32.667658 -114.599580 179 214ft 0kts
09-Sep-14 14:34 32.667658 -114.599580 179 214ft 0kts
09-Sep-14 14:35 32.667658 -114.599580 179 214ft 0kts
09-Sep-14 14:36 32.667658 -114.599580 179 214ft 0kts
09-Sep-14 14:37 32.667658 -114.599580 179 214ft 0kts
09-Sep-14 14:38 32.667658 -114.599580 179 214ft 0kts
09-Sep-14 14:39 32.667658 -114.599580 179 214ft 0kts
09-Sep-14 14:40 32.667310 -114.597276 90 207ft 14kts
09-Sep-14 14:41 32.667367 -114.592619 90 213ft 0kts
09-Sep-14 14:42 32.667367 -114.592619 90 213ft 0kts
09-Sep-14 14:43 32.667101 -114.591431 209 215ft 10kts
09-Sep-14 14:44 32.649028 -114.612643 223 981ft 171kts
09-Sep-14 14:45 32.614516 -114.652013 220 3688ft 182kts
09-Sep-14 14:46 32.566010 -114.697789 184 5059ft 264kts
09-Sep-14 14:47 32.532695 -114.631214 95 8212ft 289kts
09-Sep-14 14:48 32.576950 -114.562096 357 10308ft 343kts
09-Sep-14 14:49 32.698300 -114.596522 350 11518ft 429kts
09-Sep-14 14:50 32.764120 -114.672700 276 13844ft 423kts
09-Sep-14 14:51 32.732229 -114.804273 263 16079ft 440kts
09-Sep-14 14:52 32.739647 -114.950082 271 18209ft 457kts
09-Sep-14 14:53 32.742137 -115.090911 271 19827ft 463kts
09-Sep-14 14:54 32.744874 -115.238601 270 19898ft 470kts
09-Sep-14 14:55 32.747342 -115.392584 269 19884ft 462kts
09-Sep-14 14:56 32.749835 -115.543073 273 19876ft 454kts
09-Sep-14 14:57 32.754059 -115.711015 272 19871ft 445kts
09-Sep-14 14:58 32.757016 -115.833776 273 19871ft 446kts
09-Sep-14 14:59 32.779609 -115.974916 311 19871ft 444kts
09-Sep-14 15:00 32.855469 -116.086814 305 19870ft 444kts
09-Sep-14 15:01 32.909838 -116.180373 304 19879ft 444kts
09-Sep-14 15:02 32.967132 -116.280498 303 19934ft 447kts
09-Sep-14 15:03 33.048636 -116.423583 302 20001ft 455kts
09-Sep-14 15:04 33.107284 -116.526925 303 20000ft 454kts
09-Sep-14 15:05 33.188419 -116.639664 318 19998ft 453kts
09-Sep-14 15:06 33.314300 -116.773185 317 19991ft 453kts
09-Sep-14 15:07 33.376796 -116.840327 317 19990ft 453kts
09-Sep-14 15:08 33.469587 -116.940298 317 19979ft 453kts
09-Sep-14 15:09 33.557705 -117.035746 317 19972ft 454kts
09-Sep-14 15:10 33.646734 -117.132201 316 18983ft 446kts
09-Sep-14 15:11 33.735907 -117.229149 316 19008ft 401kts
09-Sep-14 15:12 33.810047 -117.310214 316 17864ft 358kts
09-Sep-14 15:13 33.878931 -117.385705 316 15116ft 348kts
09-Sep-14 15:14 33.947525 -117.461047 316 12524ft 337kts
09-Sep-14 15:15 34.005118 -117.575866 290 10998ft 277kts
09-Sep-14 15:16 34.017289 -117.630397 261 10266ft 252kts
09-Sep-14 15:17 34.005019 -117.707705 263 10013ft 230kts
09-Sep-14 15:18 33.997150 -117.783185 264 9003ft 235kts
09-Sep-14 15:19 33.991227 -117.842627 264 8133ft 254kts
09-Sep-14 15:20 33.984919 -117.906801 264 7371ft 240kts
09-Sep-14 15:21 33.976036 -117.996605 264 6161ft 226kts
09-Sep-14 15:22 33.969971 -118.057690 263 5254ft 213kts
09-Sep-14 15:23 33.963889 -118.119236 264 4345ft 188kts
09-Sep-14 15:24 33.958360 -118.176409 264 3604ft 180kts
09-Sep-14 15:25 33.952989 -118.230135 264 2928ft 175kts
09-Sep-14 15:26 33.948296 -118.277606 263 1913ft 170kts
09-Sep-14 15:27 33.943268 -118.324043 261 1659ft 160kts
09-Sep-14 15:28 33.938968 -118.366817 262 390ft 148kts
09-Sep-14 15:29 33.935112 -118.405091 264 123ft 57kts
09-Sep-14 15:30 33.933890 -118.406846 98 124ft 0kts
09-Sep-14 15:31 33.933923 -118.404434 79 122ft 12kts
09-Sep-14 15:32 33.932948 -118.403598 174 120ft 0kts

Navigation Log

Ident Type
1. KNYL Airport
2. BZA Navaid
3. SALUD Fix
4. CANAT Fix
5. CARGO Fix
6. IPL Navaid
7. GWIRE Fix
8. JLI Navaid
9. RONLD Fix
10. LAADY Fix
11. WYVIL Fix
12. SEAVU Fix
13. KLAX Airport